Time;durP1;ratioP1;P1;durP2;ratioP2;P2;SDS_P1;SDS_P2;PMS_P1;PMS_P2;Temp;Humidity;BMP_temperature;BMP_pressure;BME280_temperature;BME280_humidity;BME280_pressure;Samples;Min_cycle;Max_cycle;Signal;HPM_P1;HPM_P2
2021/05/27 00:01:11;;;;;;;2.75;1.85;;;9.60;99.90;;;;;;5109961;28;20076;-66
2021/05/27 00:03:36;;;;;;;6.00;3.35;;;9.50;99.90;;;;;;5109271;28;20480;-66
2021/05/27 00:06:02;;;;;;;4.72;1.80;;;9.50;99.90;;;;;;5108853;28;20441;-66
2021/05/27 00:08:28;;;;;;;3.35;1.65;;;9.60;99.90;;;;;;5110572;28;20484;-66
2021/05/27 00:10:53;;;;;;;3.50;1.63;;;9.50;99.90;;;;;;5110055;28;20028;-67
2021/05/27 00:13:19;;;;;;;3.90;1.90;;;9.60;99.90;;;;;;5109333;28;20031;-67
2021/05/27 00:15:45;;;;;;;5.05;1.92;;;9.60;99.90;;;;;;5110830;28;20372;-66
2021/05/27 00:18:10;;;;;;;3.80;1.70;;;9.60;99.90;;;;;;5108097;28;20392;-66
2021/05/27 00:20:36;;;;;;;4.03;1.92;;;9.60;99.90;;;;;;5110368;28;20047;-66
2021/05/27 00:23:02;;;;;;;3.03;1.92;;;9.50;99.90;;;;;;5108586;28;20106;-66
2021/05/27 00:25:28;;;;;;;3.33;2.17;;;9.50;99.90;;;;;;5112204;28;20028;-66
2021/05/27 00:27:54;;;;;;;8.30;2.40;;;9.50;99.90;;;;;;5114124;28;20039;-67
2021/05/27 00:30:20;;;;;;;3.55;2.40;;;9.30;99.90;;;;;;5114600;28;20051;-65
2021/05/27 00:32:48;;;;;;;5.10;2.10;;;9.20;99.90;;;;;;5113331;28;20439;-65
2021/05/27 00:35:14;;;;;;;4.88;2.17;;;9.30;99.90;;;;;;5114192;28;20104;-66
2021/05/27 00:37:40;;;;;;;2.63;1.85;;;9.30;99.90;;;;;;5113133;28;20111;-67
2021/05/27 00:40:08;;;;;;;6.95;2.15;;;9.30;99.90;;;;;;5112293;28;20123;-67
2021/05/27 00:42:35;;;;;;;3.38;1.90;;;9.30;99.90;;;;;;5114238;28;20114;-66
2021/05/27 00:45:10;;;;;;;3.22;1.90;;;9.40;99.90;;;;;;5114185;28;20027;-67
2021/05/27 00:47:36;;;;;;;4.20;2.33;;;9.30;99.90;;;;;;5114266;28;20534;-67
2021/05/27 00:50:05;;;;;;;6.30;2.20;;;9.30;99.90;;;;;;5113810;28;20032;-67
2021/05/27 00:52:31;;;;;;;3.38;2.40;;;9.20;99.90;;;;;;5114058;28;20027;-67
2021/05/27 00:54:58;;;;;;;3.13;2.38;;;9.30;99.90;;;;;;5112088;28;20023;-66
2021/05/27 00:57:38;;;;;;;1.85;1.70;;;9.30;99.90;;;;;;5112680;28;20031;-67
2021/05/27 01:00:08;;;;;;;3.25;2.25;;;9.30;99.90;;;;;;5112046;28;20491;-66
2021/05/27 01:02:34;;;;;;;3.58;2.00;;;9.30;99.90;;;;;;5112874;28;20104;-66
2021/05/27 01:05:00;;;;;;;4.43;1.75;;;9.20;99.90;;;;;;5112208;28;20532;-65
2021/05/27 01:07:26;;;;;;;3.70;2.00;;;9.20;99.90;;;;;;5112781;28;20031;-65
2021/05/27 01:09:52;;;;;;;4.45;1.95;;;9.30;99.90;;;;;;5114163;28;20433;-65
2021/05/27 01:12:18;;;;;;;6.13;1.90;;;9.20;99.90;;;;;;5113424;28;20024;-66
2021/05/27 01:17:28;;;;;;;3.47;2.10;;;9.10;99.90;;;;;;5113554;28;20073;-65
2021/05/27 01:19:54;;;;;;;4.68;2.10;;;9.20;99.90;;;;;;5112615;28;20048;-66
2021/05/27 01:22:21;;;;;;;4.13;2.10;;;9.20;99.90;;;;;;5112535;28;20038;-66
2021/05/27 01:24:48;;;;;;;4.13;2.03;;;9.10;99.90;;;;;;5112580;28;20027;-66
2021/05/27 01:27:14;;;;;;;2.90;2.08;;;9.20;99.90;;;;;;5111901;28;20035;-66
2021/05/27 01:29:41;;;;;;;7.28;2.05;;;9.20;99.90;;;;;;5112299;28;20408;-66
2021/05/27 01:32:08;;;;;;;3.50;2.10;;;9.30;99.90;;;;;;5110578;28;20131;-66
2021/05/27 01:34:34;;;;;;;7.72;2.67;;;9.20;99.90;;;;;;5112533;28;20023;-66
2021/05/27 01:37:00;;;;;;;3.70;2.13;;;9.30;99.90;;;;;;5111464;28;20032;-65
2021/05/27 01:39:26;;;;;;;2.15;1.90;;;9.20;99.90;;;;;;5111953;28;20084;-67
2021/05/27 01:41:52;;;;;;;3.72;1.73;;;9.10;99.90;;;;;;5112363;28;20024;-65
2021/05/27 01:44:18;;;;;;;5.60;2.55;;;9.30;99.90;;;;;;5111868;28;20110;-66
2021/05/27 01:46:43;;;;;;;3.80;2.15;;;9.20;99.90;;;;;;5111800;28;20107;-66
2021/05/27 01:49:09;;;;;;;4.10;2.00;;;9.10;99.90;;;;;;5111768;28;20461;-67
2021/05/27 01:51:35;;;;;;;1.90;1.67;;;9.20;99.90;;;;;;5112121;28;20024;-66
2021/05/27 01:54:01;;;;;;;3.17;1.98;;;9.00;99.90;;;;;;5110169;28;20460;-65
2021/05/27 01:56:27;;;;;;;2.97;2.45;;;9.10;99.90;;;;;;5111744;28;20031;-66
2021/05/27 01:59:00;;;;;;;4.55;2.28;;;9.00;99.90;;;;;;5111985;28;20028;-65
2021/05/27 02:01:25;;;;;;;4.70;1.98;;;9.20;99.90;;;;;;5112066;28;20032;-65
2021/05/27 02:03:51;;;;;;;4.15;1.85;;;9.20;99.90;;;;;;5111703;28;20020;-66
2021/05/27 02:06:17;;;;;;;2.70;1.80;;;9.20;99.90;;;;;;5109724;28;20525;-66
2021/05/27 02:09:07;;;;;;;6.70;2.00;;;9.20;99.90;;;;;;5111909;28;20028;-66
2021/05/27 02:11:28;;;;;;;4.60;1.77;;;9.20;99.90;;;;;;5111181;28;20047;-65
2021/05/27 02:13:54;;;;;;;3.15;2.85;;;9.20;99.90;;;;;;5110206;28;20034;-67
2021/05/27 02:16:20;;;;;;;4.47;1.77;;;9.30;99.90;;;;;;5110797;28;20106;-67
2021/05/27 02:18:45;;;;;;;5.03;2.03;;;9.40;99.90;;;;;;5073750;28;1077810;-66
2021/05/27 02:21:11;;;;;;;7.57;2.22;;;9.40;99.90;;;;;;5111723;28;20477;-66
2021/05/27 02:23:36;;;;;;;3.30;1.90;;;9.40;99.90;;;;;;5112450;28;20373;-67
2021/05/27 02:26:02;;;;;;;4.18;1.80;;;9.50;99.90;;;;;;5111885;28;20128;-66
2021/05/27 02:28:28;;;;;;;7.30;2.38;;;9.50;99.90;;;;;;5112618;28;20334;-65
2021/05/27 02:30:53;;;;;;;9.82;2.83;;;9.40;99.90;;;;;;5112459;28;20031;-65
2021/05/27 02:33:19;;;;;;;2.85;1.88;;;9.50;99.90;;;;;;5111640;28;20034;-65
2021/05/27 02:35:45;;;;;;;4.20;1.85;;;9.40;99.90;;;;;;5111791;28;20022;-65
2021/05/27 02:38:10;;;;;;;3.60;2.10;;;9.50;99.90;;;;;;5111875;28;20410;-66
2021/05/27 02:40:36;;;;;;;4.53;2.25;;;9.50;99.90;;;;;;5111986;28;20095;-66
2021/05/27 02:43:01;;;;;;;5.25;2.30;;;9.50;99.90;;;;;;5110142;28;20028;-66
2021/05/27 02:45:27;;;;;;;3.90;2.65;;;9.50;99.90;;;;;;5112058;28;20064;-65
2021/05/27 02:47:52;;;;;;;4.78;3.42;;;9.40;99.90;;;;;;5109269;28;20031;-66
2021/05/27 02:50:19;;;;;;;6.43;3.05;;;9.40;99.90;;;;;;5110957;28;20035;-66
2021/05/27 02:52:45;;;;;;;5.78;2.65;;;9.50;99.90;;;;;;5111931;28;20052;-66
2021/05/27 02:55:11;;;;;;;3.90;2.92;;;9.40;99.90;;;;;;5111270;28;20352;-66
2021/05/27 02:57:36;;;;;;;4.28;2.55;;;9.50;99.90;;;;;;5111996;28;20035;-65
2021/05/27 03:00:07;;;;;;;5.05;2.42;;;9.40;99.90;;;;;;5111193;28;20380;-66
2021/05/27 03:02:33;;;;;;;6.80;3.15;;;9.40;99.90;;;;;;5112267;28;20066;-65
2021/05/27 03:04:58;;;;;;;7.35;3.22;;;9.50;99.90;;;;;;5111983;28;20081;-67
2021/05/27 03:07:24;;;;;;;5.57;2.97;;;9.50;99.90;;;;;;5109579;28;20558;-66
2021/05/27 03:09:49;;;;;;;5.30;3.05;;;9.40;99.90;;;;;;5111403;28;20110;-66
2021/05/27 03:12:15;;;;;;;8.02;3.97;;;9.40;99.90;;;;;;5109554;28;20144;-68
2021/05/27 03:14:41;;;;;;;6.97;3.58;;;9.40;99.90;;;;;;5111614;28;20116;-66
2021/05/27 03:17:06;;;;;;;5.55;4.25;;;9.40;99.90;;;;;;5110719;28;20074;-66
2021/05/27 03:19:32;;;;;;;6.68;3.67;;;9.50;99.90;;;;;;5111082;28;20489;-65
2021/05/27 03:21:57;;;;;;;5.50;4.70;;;9.50;99.90;;;;;;5109835;28;20032;-66
2021/05/27 03:24:23;;;;;;;6.65;3.78;;;9.50;99.90;;;;;;5109404;28;20402;-65
2021/05/27 03:26:51;;;;;;;5.75;3.70;;;9.40;99.90;;;;;;5109682;28;20028;-65
2021/05/27 03:29:18;;;;;;;6.57;4.28;;;9.50;99.90;;;;;;5110824;28;20024;-66
2021/05/27 03:31:44;;;;;;;7.10;4.82;;;9.40;99.90;;;;;;5111375;28;20024;-66
2021/05/27 03:34:10;;;;;;;6.03;4.55;;;9.50;99.90;;;;;;5109173;28;20055;-66
2021/05/27 03:36:35;;;;;;;7.38;4.22;;;9.50;99.90;;;;;;5109368;28;20047;-65
2021/05/27 03:39:02;;;;;;;6.72;4.38;;;9.50;99.90;;;;;;5111136;28;20465;-66
2021/05/27 03:41:28;;;;;;;8.23;4.40;;;9.50;99.90;;;;;;5111036;28;20055;-66
2021/05/27 03:43:53;;;;;;;6.53;4.15;;;9.50;99.90;;;;;;5111179;28;20461;-66
2021/05/27 03:46:19;;;;;;;13.65;5.75;;;9.50;99.90;;;;;;5109898;28;20431;-67
2021/05/27 03:48:45;;;;;;;8.70;4.80;;;9.50;99.90;;;;;;5111190;28;20103;-66
2021/05/27 03:51:10;;;;;;;7.75;5.07;;;9.50;99.90;;;;;;5110414;28;20483;-66
2021/05/27 03:53:36;;;;;;;7.38;5.25;;;9.50;99.90;;;;;;5109288;28;20027;-66
2021/05/27 03:56:02;;;;;;;5.50;4.97;;;9.50;99.90;;;;;;5110840;28;20027;-67
2021/05/27 04:01:12;;;;;;;6.68;5.30;;;9.40;99.90;;;;;;5110301;28;20092;-66
2021/05/27 04:09:06;;;;;;;8.93;6.15;;;9.50;99.90;;;;;;5109927;28;20034;-66
2021/05/27 04:11:31;;;;;;;12.27;5.63;;;9.50;99.90;;;;;;5110746;28;20024;-64
2021/05/27 04:13:57;;;;;;;8.15;5.50;;;9.50;99.90;;;;;;5109302;28;20092;-65
2021/05/27 04:16:23;;;;;;;7.13;5.00;;;9.60;99.90;;;;;;5109972;28;20065;-66
2021/05/27 04:18:49;;;;;;;7.95;4.85;;;9.60;99.90;;;;;;5109133;28;20094;-67
2021/05/27 04:21:17;;;;;;;6.32;5.05;;;9.60;99.90;;;;;;5110007;28;20031;-67
2021/05/27 04:23:43;;;;;;;8.55;5.53;;;9.60;99.90;;;;;;5109138;28;20031;-67
2021/05/27 04:26:11;;;;;;;8.25;5.25;;;9.60;99.90;;;;;;5109843;28;20043;-67
2021/05/27 04:28:37;;;;;;;12.70;5.32;;;9.50;99.90;;;;;;5110743;28;20027;-67
2021/05/27 04:31:12;;;;;;;5.97;5.38;;;9.60;99.90;;;;;;5110221;28;20388;-67
2021/05/27 04:33:53;;;;;;;8.30;5.78;;;9.50;99.90;;;;;;5110497;28;20036;-67
2021/05/27 04:36:19;;;;;;;8.43;5.80;;;9.60;99.90;;;;;;5109781;28;20160;-66
2021/05/27 04:38:46;;;;;;;9.60;5.10;;;9.60;99.90;;;;;;5108737;28;20028;-66
2021/05/27 04:41:12;;;;;;;9.23;5.70;;;9.60;99.90;;;;;;5109703;28;20028;-65
2021/05/27 04:43:39;;;;;;;9.80;6.13;;;9.70;99.90;;;;;;5108999;28;20047;-66
2021/05/27 04:46:05;;;;;;;7.03;5.53;;;9.50;99.90;;;;;;5110049;28;20047;-65
2021/05/27 04:48:31;;;;;;;7.18;5.70;;;9.60;99.90;;;;;;5109240;28;20064;-66
2021/05/27 04:50:57;;;;;;;9.80;6.25;;;9.70;99.90;;;;;;5109864;28;20444;-65
2021/05/27 04:53:24;;;;;;;8.98;5.68;;;9.70;99.90;;;;;;5109702;28;20438;-64
2021/05/27 04:55:51;;;;;;;10.88;5.72;;;9.70;99.90;;;;;;5108536;28;20087;-65
2021/05/27 04:58:17;;;;;;;8.88;4.90;;;9.70;99.90;;;;;;5108116;28;20031;-66
2021/05/27 05:00:43;;;;;;;7.78;5.28;;;9.70;99.90;;;;;;5110246;28;20031;-66
2021/05/27 05:03:09;;;;;;;7.65;5.40;;;9.80;99.90;;;;;;5109678;28;20065;-66
2021/05/27 05:05:36;;;;;;;13.20;5.72;;;9.70;99.90;;;;;;5109827;28;20465;-64
2021/05/27 05:08:02;;;;;;;9.13;5.82;;;9.70;99.90;;;;;;5109810;28;20028;-65
2021/05/27 05:10:29;;;;;;;9.85;4.85;;;9.80;99.90;;;;;;5110302;28;20028;-66
2021/05/27 05:12:55;;;;;;;9.48;5.43;;;9.80;99.90;;;;;;5113463;28;20460;-66
2021/05/27 05:15:30;;;;;;;12.57;6.20;;;9.90;99.90;;;;;;5113456;28;20024;-65
2021/05/27 05:18:18;;;;;;;9.85;5.70;;;9.90;99.90;;;;;;5113077;28;20046;-66
2021/05/27 05:20:50;;;;;;;7.68;4.85;;;9.90;99.90;;;;;;5105527;28;20028;-67
2021/05/27 05:23:16;;;;;;;9.77;5.47;;;9.80;99.90;;;;;;5091360;28;20027;-67
2021/05/27 05:25:42;;;;;;;12.65;4.90;;;9.80;99.90;;;;;;5093566;28;20050;-69
2021/05/27 05:28:11;;;;;;;10.18;5.93;;;9.70;99.90;;;;;;5093079;28;20136;-68
2021/05/27 05:30:37;;;;;;;9.57;5.10;;;9.80;99.90;;;;;;5093191;28;20028;-65
2021/05/27 05:33:03;;;;;;;11.50;5.85;;;9.80;99.90;;;;;;5093075;28;20039;-65
2021/05/27 05:35:29;;;;;;;226.63;37.20;;;9.90;99.90;;;;;;5090740;28;20047;-68
2021/05/27 05:37:55;;;;;;;26.58;15.60;;;10.20;99.90;;;;;;5092958;28;20032;-68
2021/05/27 05:40:24;;;;;;;22.45;15.82;;;11.20;99.90;;;;;;5090296;28;20100;-68
2021/05/27 05:42:51;;;;;;;16.05;9.85;;;11.30;99.90;;;;;;5093987;28;20028;-68
2021/05/27 05:45:17;;;;;;;16.05;7.45;;;11.40;99.90;;;;;;5111529;28;20051;-68
2021/05/27 05:47:49;;;;;;;10.27;5.10;;;11.40;99.90;;;;;;5110135;28;20031;-65
2021/05/27 05:50:44;;;;;;;8.02;5.15;;;11.40;99.90;;;;;;5109811;28;20370;-65
2021/05/27 05:53:01;;;;;;;7.70;5.00;;;10.90;99.90;;;;;;5110459;28;20031;-73
2021/05/27 05:55:27;;;;;;;9.68;5.85;;;10.40;99.90;;;;;;5108814;28;20417;-66
2021/05/27 05:57:53;;;;;;;8.38;5.82;;;10.30;99.90;;;;;;5110944;28;20384;-67
2021/05/27 06:00:19;;;;;;;7.15;5.68;;;10.10;99.90;;;;;;5110110;28;20028;-66
2021/05/27 06:02:44;;;;;;;7.95;5.82;;;10.10;99.90;;;;;;5109462;28;20067;-65
2021/05/27 06:05:11;;;;;;;10.02;6.10;;;10.20;99.90;;;;;;5109088;28;20055;-69
2021/05/27 06:07:36;;;;;;;9.95;6.03;;;10.20;99.90;;;;;;5109871;28;20074;-66
2021/05/27 06:10:02;;;;;;;7.85;4.95;;;10.10;99.90;;;;;;5109627;28;20055;-67
2021/05/27 06:12:28;;;;;;;6.78;5.65;;;10.10;99.90;;;;;;5108605;28;20428;-67
2021/05/27 06:14:54;;;;;;;11.90;5.50;;;10.20;99.90;;;;;;5110716;28;20050;-66
2021/05/27 06:17:19;;;;;;;7.90;5.75;;;10.20;99.90;;;;;;5109976;28;20112;-66
2021/05/27 06:19:45;;;;;;;11.15;4.82;;;10.30;99.90;;;;;;5110416;28;20138;-67
2021/05/27 06:22:10;;;;;;;5.78;4.28;;;10.40;99.90;;;;;;5108675;28;20031;-68
2021/05/27 06:24:36;;;;;;;6.47;4.90;;;10.50;99.90;;;;;;5109022;28;20094;-66
2021/05/27 06:27:02;;;;;;;7.70;4.65;;;10.60;99.90;;;;;;5110293;28;20121;-66
2021/05/27 06:29:27;;;;;;;8.45;5.22;;;10.60;99.90;;;;;;5108352;28;20452;-66
2021/05/27 06:31:53;;;;;;;6.38;4.22;;;10.60;99.90;;;;;;5108600;28;20068;-66
2021/05/27 06:34:19;;;;;;;7.03;4.68;;;10.60;99.90;;;;;;5107931;28;20329;-66
2021/05/27 06:36:44;;;;;;;6.57;4.90;;;10.60;99.90;;;;;;5108570;28;20031;-67
2021/05/27 06:39:11;;;;;;;7.30;5.25;;;10.70;99.90;;;;;;5110237;28;20046;-71
2021/05/27 06:41:36;;;;;;;8.15;4.90;;;10.70;99.90;;;;;;5109753;28;20039;-66
2021/05/27 06:44:02;;;;;;;8.52;4.95;;;10.60;99.90;;;;;;5108638;28;20024;-66
2021/05/27 06:46:28;;;;;;;12.63;5.22;;;10.60;99.90;;;;;;5109424;28;20130;-67
2021/05/27 06:48:54;;;;;;;10.80;5.30;;;10.70;99.90;;;;;;5109908;28;20043;-67
2021/05/27 06:51:20;;;;;;;8.32;4.25;;;10.80;99.90;;;;;;5109059;28;20020;-66
2021/05/27 06:53:45;;;;;;;7.53;4.82;;;10.90;99.90;;;;;;5109766;28;20368;-67
2021/05/27 06:56:11;;;;;;;10.68;5.07;;;10.90;99.90;;;;;;5109332;28;20066;-68
2021/05/27 06:58:36;;;;;;;9.63;4.85;;;10.90;99.90;;;;;;5109527;28;20129;-67
2021/05/27 07:01:02;;;;;;;10.30;5.22;;;10.90;99.90;;;;;;5109317;28;20035;-66
2021/05/27 07:03:28;;;;;;;8.23;4.57;;;10.90;99.90;;;;;;5109257;28;20099;-66
2021/05/27 07:05:54;;;;;;;6.28;4.55;;;10.90;99.90;;;;;;5108211;28;20131;-67
2021/05/27 07:08:20;;;;;;;6.57;4.50;;;10.90;99.90;;;;;;5109022;28;20042;-67
2021/05/27 07:10:45;;;;;;;12.65;5.22;;;11.00;99.90;;;;;;5109367;28;20492;-67
2021/05/27 07:13:11;;;;;;;9.70;4.90;;;11.00;99.90;;;;;;5107510;28;20046;-70
2021/05/27 07:15:38;;;;;;;6.55;5.18;;;10.90;99.90;;;;;;5109236;28;20344;-67
2021/05/27 07:18:05;;;;;;;5.90;4.63;;;10.90;99.90;;;;;;5109093;28;20180;-66
2021/05/27 07:20:31;;;;;;;8.23;4.75;;;10.90;99.90;;;;;;5108347;28;20115;-67
2021/05/27 07:22:57;;;;;;;5.55;4.07;;;11.00;99.90;;;;;;5107972;28;20043;-67
2021/05/27 07:25:24;;;;;;;10.93;4.82;;;11.10;99.90;;;;;;5108612;28;20023;-67
2021/05/27 07:27:55;;;;;;;8.05;3.65;;;11.20;99.90;;;;;;5109341;28;20370;-68
2021/05/27 07:30:22;;;;;;;7.47;3.38;;;11.40;99.90;;;;;;5107606;28;20035;-67
2021/05/27 07:32:49;;;;;;;5.20;3.80;;;11.70;99.90;;;;;;5107374;28;20031;-66
2021/05/27 07:35:15;;;;;;;5.72;3.45;;;11.70;99.90;;;;;;5106713;28;20027;-67
2021/05/27 07:37:40;;;;;;;8.52;4.18;;;11.40;99.90;;;;;;5107780;28;20031;-66
2021/05/27 07:40:08;;;;;;;8.02;4.20;;;11.30;99.90;;;;;;5107641;28;20028;-66
2021/05/27 07:42:34;;;;;;;5.88;3.47;;;11.20;99.90;;;;;;5106676;28;20106;-66
2021/05/27 07:45:00;;;;;;;6.72;3.45;;;11.20;99.90;;;;;;5108474;28;20201;-68
2021/05/27 07:47:28;;;;;;;6.35;3.55;;;11.20;99.90;;;;;;5107612;28;20150;-67
2021/05/27 07:49:53;;;;;;;5.80;3.47;;;11.30;99.90;;;;;;5107570;28;20032;-67
2021/05/27 07:52:19;;;;;;;9.70;4.32;;;11.30;99.90;;;;;;5106458;28;20433;-65
2021/05/27 07:54:47;;;;;;;5.03;3.38;;;11.30;99.90;;;;;;5108902;28;20035;-64
2021/05/27 07:57:13;;;;;;;6.60;3.55;;;11.40;99.90;;;;;;5107088;28;20039;-67
2021/05/27 07:59:38;;;;;;;6.38;3.38;;;11.40;99.90;;;;;;5107267;28;20027;-68
2021/05/27 08:02:04;;;;;;;8.20;2.78;;;11.50;99.90;;;;;;5107469;28;20023;-65
2021/05/27 08:04:31;;;;;;;8.23;3.33;;;11.60;99.90;;;;;;5108146;28;20032;-65
2021/05/27 08:06:57;;;;;;;7.13;3.15;;;11.60;99.90;;;;;;5108128;28;20103;-65
2021/05/27 08:09:22;;;;;;;5.75;3.17;;;11.50;99.90;;;;;;5106297;28;20245;-65
2021/05/27 08:11:48;;;;;;;3.97;2.88;;;11.70;99.90;;;;;;5096937;28;20115;-67
2021/05/27 08:14:14;;;;;;;9.02;3.83;;;11.80;99.90;;;;;;5100166;28;20410;-65
2021/05/27 08:16:39;;;;;;;8.32;4.07;;;11.80;99.90;;;;;;5088616;28;20526;-67
2021/05/27 08:19:05;;;;;;;4.70;2.97;;;11.90;99.90;;;;;;5088150;28;20127;-66
2021/05/27 08:21:32;;;;;;;7.30;3.88;;;11.90;99.90;;;;;;5087268;28;20134;-66
2021/05/27 08:23:58;;;;;;;7.45;3.33;;;12.00;99.90;;;;;;5092343;28;20027;-65
2021/05/27 08:26:24;;;;;;;6.32;2.90;;;12.00;99.90;;;;;;5106711;28;20460;-65
2021/05/27 08:28:52;;;;;;;4.70;3.33;;;11.90;99.90;;;;;;5106455;28;20061;-66
2021/05/27 08:31:19;;;;;;;6.18;2.90;;;11.90;99.90;;;;;;5106995;28;20031;-68
2021/05/27 08:33:45;;;;;;;6.38;3.17;;;11.90;99.90;;;;;;5107551;28;20027;-65
2021/05/27 08:36:10;;;;;;;4.40;2.90;;;11.90;99.90;;;;;;5107389;28;20043;-65
2021/05/27 08:38:36;;;;;;;9.85;3.17;;;11.90;99.90;;;;;;5106472;28;20202;-66
2021/05/27 08:41:03;;;;;;;4.85;2.53;;;12.00;99.90;;;;;;5106700;28;20019;-65
2021/05/27 08:43:29;;;;;;;3.03;2.50;;;11.90;99.90;;;;;;5106490;28;20035;-64
2021/05/27 08:45:56;;;;;;;3.50;2.35;;;12.00;99.90;;;;;;5108494;28;20707;-66
2021/05/27 08:48:22;;;;;;;5.50;3.25;;;12.00;99.90;;;;;;5109065;28;20111;-65
2021/05/27 08:50:48;;;;;;;5.82;2.50;;;12.10;99.90;;;;;;5109407;28;20115;-64
2021/05/27 08:53:18;;;;;;;5.55;2.70;;;12.00;99.90;;;;;;5111579;28;20035;-72
2021/05/27 08:55:45;;;;;;;3.78;2.90;;;12.00;99.90;;;;;;5110513;28;20032;-64
2021/05/27 08:58:13;;;;;;;7.47;3.20;;;12.00;99.90;;;;;;5111886;28;20020;-68
2021/05/27 09:00:39;;;;;;;11.93;3.60;;;12.10;99.90;;;;;;5109357;28;20024;-70
2021/05/27 09:03:06;;;;;;;8.98;3.13;;;12.20;99.90;;;;;;5109955;28;20033;-66
2021/05/27 09:05:37;;;;;;;6.10;3.50;;;12.20;99.90;;;;;;5110829;28;20105;-66
2021/05/27 09:08:08;;;;;;;9.38;3.00;;;12.30;99.90;;;;;;5111877;28;20039;-67
2021/05/27 09:10:46;;;;;;;6.97;3.47;;;12.40;99.90;;;;;;5111133;28;20092;-67
2021/05/27 09:13:18;;;;;;;5.65;2.90;;;12.50;99.90;;;;;;5109707;28;20039;-70
2021/05/27 09:15:47;;;;;;;7.15;2.65;;;12.50;99.90;;;;;;5110219;28;20134;-64
2021/05/27 09:18:27;;;;;;;6.93;3.75;;;12.60;99.90;;;;;;5097510;28;20063;-66
2021/05/27 09:20:52;;;;;;;5.07;2.72;;;12.80;99.90;;;;;;5105148;28;20046;-65
2021/05/27 09:23:21;;;;;;;4.88;3.20;;;12.80;99.90;;;;;;5109582;28;20036;-65
2021/05/27 09:25:53;;;;;;;6.72;2.95;;;13.00;99.90;;;;;;5111559;28;20457;-66
2021/05/27 09:28:24;;;;;;;5.97;3.00;;;13.30;99.90;;;;;;5108856;28;20440;-65
2021/05/27 09:30:56;;;;;;;4.28;2.63;;;13.50;99.90;;;;;;5111733;28;20130;-66
2021/05/27 09:33:36;;;;;;;5.72;2.47;;;13.70;99.90;;;;;;5111318;28;20027;-65
2021/05/27 09:36:14;;;;;;;7.03;3.05;;;13.90;99.90;;;;;;5111572;28;20102;-66
2021/05/27 09:38:41;;;;;;;5.32;2.95;;;14.20;99.90;;;;;;5109989;28;20110;-67
2021/05/27 09:41:34;;;;;;;5.32;2.60;;;14.30;99.90;;;;;;5111661;28;20044;-70
2021/05/27 09:44:02;;;;;;;3.75;1.95;;;14.50;99.90;;;;;;5108391;28;20420;-66
2021/05/27 09:46:46;;;;;;;5.15;2.67;;;14.60;99.90;;;;;;5096747;28;20028;-67
2021/05/27 09:49:12;;;;;;;3.30;2.00;;;14.50;99.90;;;;;;5107657;28;20473;-73
2021/05/27 09:51:37;;;;;;;4.55;2.15;;;15.10;99.90;;;;;;5110860;28;20128;-68
2021/05/27 09:54:04;;;;;;;3.60;2.20;;;15.40;99.90;;;;;;5111691;28;20414;-68
2021/05/27 09:56:38;;;;;;;5.53;2.70;;;15.70;99.90;;;;;;5109094;28;20054;-69
2021/05/27 09:59:04;;;;;;;5.03;2.17;;;16.00;99.90;;;;;;5110472;28;20386;-69
2021/05/27 10:01:30;;;;;;;7.05;2.50;;;15.90;99.90;;;;;;5110003;28;20028;-71
2021/05/27 10:04:13;;;;;;;3.33;2.28;;;15.60;99.90;;;;;;5110759;28;20030;-67
2021/05/27 10:06:39;;;;;;;4.00;2.13;;;15.30;99.90;;;;;;5109716;28;20149;-66
2021/05/27 10:09:08;;;;;;;4.90;2.33;;;14.90;99.90;;;;;;5108603;28;20174;-67
2021/05/27 10:11:33;;;;;;;2.95;2.60;;;14.90;99.90;;;;;;5108570;28;20091;-67
2021/05/27 10:14:01;;;;;;;4.20;2.15;;;14.70;99.90;;;;;;5109197;28;20317;-66
2021/05/27 10:16:27;;;;;;;3.13;2.28;;;14.50;99.90;;;;;;5091051;28;20035;-66
2021/05/27 10:18:54;;;;;;;4.25;2.38;;;14.30;99.90;;;;;;5103083;28;20117;-67
2021/05/27 10:21:21;;;;;;;2.50;2.03;;;14.40;99.90;;;;;;5109667;28;20031;-68
2021/05/27 10:23:47;;;;;;;5.22;1.98;;;14.50;99.90;;;;;;5110354;28;20051;-72
2021/05/27 10:26:13;;;;;;;6.05;2.22;;;14.70;99.90;;;;;;5109733;28;20427;-75
2021/05/27 10:28:49;;;;;;;5.38;2.03;;;14.70;99.90;;;;;;5110005;28;20156;-75
2021/05/27 10:31:16;;;;;;;9.05;2.22;;;15.00;99.90;;;;;;5111487;28;20059;-75
2021/05/27 10:33:42;;;;;;;4.03;1.67;;;15.20;99.90;;;;;;5111605;28;20027;-71
2021/05/27 10:36:11;;;;;;;3.55;1.73;;;15.10;99.90;;;;;;5109894;28;20502;-72
2021/05/27 10:38:43;;;;;;;3.85;1.70;;;15.30;99.90;;;;;;5091863;28;20027;-73
2021/05/27 10:41:12;;;;;;;2.83;1.50;;;15.20;99.90;;;;;;5087259;28;20093;-72
2021/05/27 10:44:04;;;;;;;3.03;1.55;;;15.20;99.90;;;;;;5095973;28;20393;-72
2021/05/27 10:46:53;;;;;;;6.55;1.40;;;15.00;99.90;;;;;;5107458;28;20101;-72
2021/05/27 10:49:47;;;;;;;2.42;1.80;;;15.10;99.90;;;;;;5101021;28;20052;-74
2021/05/27 10:52:30;;;;;;;5.80;1.83;;;15.20;99.90;;;;;;5105331;28;20032;-76
2021/05/27 10:54:55;;;;;;;9.43;1.88;;;15.30;99.90;;;;;;5108348;28;20123;-74
2021/05/27 10:57:48;;;;;;;7.05;1.90;;;15.50;99.90;;;;;;5108441;28;20110;-75
2021/05/27 11:00:13;;;;;;;2.20;1.58;;;15.70;99.90;;;;;;5100168;28;20035;-74
2021/05/27 11:02:39;;;;;;;3.38;2.05;;;15.60;99.90;;;;;;5107830;28;20020;-72
2021/05/27 11:05:15;;;;;;;2.88;2.38;;;15.70;99.90;;;;;;5108439;28;20024;-72
2021/05/27 11:07:41;;;;;;;4.35;1.45;;;15.60;99.90;;;;;;5107671;28;20073;-72
2021/05/27 11:10:28;;;;;;;1.83;1.33;;;15.60;99.90;;;;;;5107716;28;20138;-73
2021/05/27 11:13:05;;;;;;;2.83;1.48;;;15.60;99.90;;;;;;5109403;28;20126;-72
2021/05/27 11:15:31;;;;;;;1.42;1.20;;;15.50;99.90;;;;;;5093340;28;20024;-71
2021/05/27 11:18:01;;;;;;;3.78;1.65;;;15.30;99.90;;;;;;5093306;28;20034;-73
2021/05/27 11:20:29;;;;;;;2.58;1.30;;;15.30;99.90;;;;;;5106675;28;20055;-72
2021/05/27 11:23:07;;;;;;;6.80;1.50;;;15.20;99.90;;;;;;5107867;28;20073;-73
2021/05/27 11:25:35;;;;;;;3.80;2.00;;;15.40;99.90;;;;;;5107348;28;20038;-76
2021/05/27 11:28:00;;;;;;;4.80;1.55;;;15.60;99.90;;;;;;5107674;28;20032;-73
2021/05/27 11:30:41;;;;;;;3.83;1.40;;;15.40;99.90;;;;;;5107888;28;20046;-71
2021/05/27 11:33:12;;;;;;;3.03;2.13;;;15.30;99.90;;;;;;5111033;28;20020;-72
2021/05/27 11:35:38;;;;;;;;;;;15.10;99.90;;;;;;5109844;28;20532;-73
2021/05/27 11:38:11;;;;;;;2.40;2.20;;;14.70;99.90;;;;;;5109661;28;19998;-72
2021/05/27 11:40:40;;;;;;;3.83;2.33;;;14.30;99.90;;;;;;5109891;28;20020;-72
2021/05/27 11:43:06;;;;;;;3.67;2.60;;;14.00;99.90;;;;;;5109332;28;20031;-75
2021/05/27 11:45:48;;;;;;;6.22;2.92;;;13.80;99.90;;;;;;5103266;28;20115;-72
2021/05/27 11:48:23;;;;;;;6.68;2.33;;;13.50;99.90;;;;;;5088536;28;20501;-74
2021/05/27 11:50:49;;;;;;;2.83;2.38;;;13.40;99.90;;;;;;5088750;28;20043;-73
2021/05/27 11:53:19;;;;;;;4.07;2.53;;;13.50;99.90;;;;;;5088375;28;20054;-77
2021/05/27 11:55:55;;;;;;;3.65;2.17;;;13.40;99.90;;;;;;5090646;28;20112;-73
2021/05/27 11:58:41;;;;;;;4.72;2.05;;;13.40;99.90;;;;;;5088768;28;20032;-74
2021/05/27 12:01:25;;;;;;;6.75;3.03;;;13.40;99.90;;;;;;5088583;28;20048;-74
2021/05/27 12:04:18;;;;;;;2.05;1.73;;;13.30;99.90;;;;;;5088180;28;20032;-73
2021/05/27 12:06:50;;;;;;;3.15;2.05;;;13.20;99.90;;;;;;5089654;28;20450;-73
2021/05/27 12:09:37;;;;;;;3.97;1.70;;;13.20;99.90;;;;;;5089530;28;20417;-76
2021/05/27 12:12:24;;;;;;;4.18;1.70;;;13.30;99.90;;;;;;5089809;28;20107;-72
2021/05/27 12:14:54;;;;;;;10.15;2.63;;;13.40;99.90;;;;;;5101537;28;20035;-72
2021/05/27 12:17:25;;;;;;;1.83;1.42;;;13.30;99.90;;;;;;5107891;28;20459;-74
2021/05/27 12:19:52;;;;;;;4.75;1.90;;;13.50;99.90;;;;;;5110093;28;20047;-73
2021/05/27 12:22:19;;;;;;;3.17;1.65;;;13.40;99.90;;;;;;5113126;28;20453;-73
2021/05/27 12:24:47;;;;;;;4.45;1.42;;;13.50;99.90;;;;;;5115370;28;20457;-74
2021/05/27 12:27:13;;;;;;;2.67;1.38;;;13.50;99.90;;;;;;5114125;28;20027;-58
2021/05/27 12:29:40;;;;;;;5.10;1.65;;;13.60;99.90;;;;;;5113630;28;20103;-56
2021/05/27 12:32:08;;;;;;;3.95;1.58;;;15.20;99.90;;;;;;5113060;28;20031;-73
2021/05/27 12:34:38;;;;;;;3.00;1.70;;;15.40;99.90;;;;;;5112917;28;20023;-73
2021/05/27 12:37:04;;;;;;;3.53;1.88;;;14.70;99.90;;;;;;5111665;28;20034;-72
2021/05/27 12:39:31;;;;;;;3.28;1.80;;;14.10;99.90;;;;;;5111682;28;20123;-72
2021/05/27 12:41:57;;;;;;;1.90;1.50;;;13.80;99.90;;;;;;5113794;28;20201;-73
2021/05/27 12:44:31;;;;;;;1.80;1.40;;;13.50;99.90;;;;;;5111835;28;20077;-73
2021/05/27 12:46:57;;;;;;;1.65;0.75;;;13.40;99.90;;;;;;5112795;28;20126;-73
2021/05/27 12:49:32;;;;;;;1.98;1.15;;;13.30;99.90;;;;;;5113851;28;20383;-72
2021/05/27 12:51:59;;;;;;;2.03;1.00;;;13.20;99.90;;;;;;5113421;28;20024;-72
2021/05/27 12:54:25;;;;;;;2.10;1.25;;;13.30;99.90;;;;;;5113656;28;20027;-71
2021/05/27 12:57:01;;;;;;;1.40;1.20;;;13.20;99.90;;;;;;5114532;28;20084;-73
2021/05/27 12:59:27;;;;;;;1.33;1.13;;;13.00;99.90;;;;;;5113920;28;20032;-75
2021/05/27 13:01:58;;;;;;;1.77;1.45;;;13.00;99.90;;;;;;5114328;28;20035;-72
2021/05/27 13:04:31;;;;;;;1.63;1.50;;;13.00;99.90;;;;;;5113814;28;20194;-72
2021/05/27 13:07:14;;;;;;;2.22;1.52;;;13.00;99.90;;;;;;5112758;28;20126;-72